Time,TemperatureF,DewpointF,PressureIn,WindDirection,WindDirectionDegrees,WindSpeedMPH,WindSpeedGustMPH,Humidity,HourlyPrecipIn,Conditions,Clouds,dailyrainin,SoftwareType,DateUTC
2013-07-24 00:06:00,74.2,47.0,29.84,NNW,343,2.0,3.0,38,0.00,,,0.00,Wunderground v.1.15,2013-07-24 07:06:00,
2013-07-24 00:16:00,74.1,48.2,29.84,SW,234,1.0,1.0,40,0.00,,,0.00,Wunderground v.1.15,2013-07-24 07:16:00,
2013-07-24 00:26:00,73.2,48.1,29.84,NNE,25,1.0,2.0,41,0.00,,,0.00,Wunderground v.1.15,2013-07-24 07:26:00,
2013-07-24 00:31:00,74.1,48.9,29.84,WSW,237,2.0,5.0,41,0.00,,,0.00,Wunderground v.1.15,2013-07-24 07:31:00,
2013-07-24 00:41:00,73.7,48.5,29.84,West,259,2.0,3.0,41,0.00,,,0.00,Wunderground v.1.15,2013-07-24 07:41:00,
2013-07-24 00:46:00,73.7,49.2,29.83,WNW,295,3.0,3.0,42,0.00,,,0.00,Wunderground v.1.15,2013-07-24 07:46:00,
2013-07-24 00:51:00,73.5,49.0,29.83,ESE,111,2.0,3.0,42,0.00,,,0.00,Wunderground v.1.15,2013-07-24 07:51:00,
2013-07-24 01:01:00,72.5,49.3,29.83,SE,126,1.0,1.0,44,0.00,,,0.00,Wunderground v.1.15,2013-07-24 08:01:00,
2013-07-24 01:06:00,71.9,48.8,29.84,SE,125,1.0,1.0,44,0.00,,,0.00,Wunderground v.1.15,2013-07-24 08:06:00,
2013-07-24 01:15:00,71.8,49.9,29.83,WNW,298,1.0,4.0,46,0.00,,,0.00,Wunderground v.1.15,2013-07-24 08:15:00,
2013-07-24 01:21:00,72.6,50.6,29.83,South,187,2.0,4.0,46,0.00,,,0.00,Wunderground v.1.15,2013-07-24 08:21:00,
2013-07-24 01:26:00,72.6,49.4,29.83,East,90,2.0,2.0,44,0.00,,,0.00,Wunderground v.1.15,2013-07-24 08:26:00,
2013-07-24 01:31:00,72.2,50.3,29.83,ESE,118,1.0,2.0,46,0.00,,,0.00,Wunderground v.1.15,2013-07-24 08:31:00,
2013-07-24 01:41:00,71.7,50.4,29.83,SW,219,1.0,3.0,47,0.00,,,0.00,Wunderground v.1.15,2013-07-24 08:41:00,
2013-07-24 01:46:00,71.5,50.8,29.83,SSE,163,0.0,2.0,48,0.00,,,0.00,Wunderground v.1.15,2013-07-24 08:46:00,
2013-07-24 01:51:00,71.1,50.4,29.83,East,90,0.0,2.0,48,0.00,,,0.00,Wunderground v.1.15,2013-07-24 08:51:00,
2013-07-24 02:01:00,70.9,50.8,29.83,NE,39,0.0,0.0,49,0.00,,,0.00,Wunderground v.1.15,2013-07-24 09:01:00,
2013-07-24 02:06:00,70.8,51.2,29.83,NW,314,0.0,0.0,50,0.00,,,0.00,Wunderground v.1.15,2013-07-24 09:06:00,
2013-07-24 02:16:00,70.7,50.6,29.83,SE,131,0.0,0.0,49,0.00,,,0.00,Wunderground v.1.15,2013-07-24 09:16:00,
2013-07-24 02:26:00,69.9,50.9,29.82,SE,143,0.0,0.0,51,0.00,,,0.00,Wunderground v.1.15,2013-07-24 09:26:00,
2013-07-24 02:31:00,69.6,51.2,29.82,SE,143,0.0,0.0,52,0.00,,,0.00,Wunderground v.1.15,2013-07-24 09:31:00,
2013-07-24 02:36:00,69.4,51.5,29.82,SW,219,0.0,0.0,53,0.00,,,0.00,Wunderground v.1.15,2013-07-24 09:36:00,
2013-07-24 02:46:00,69.5,51.6,29.82,ENE,74,0.0,0.0,53,0.00,,,0.00,Wunderground v.1.15,2013-07-24 09:46:00,
2013-07-24 02:56:00,69.3,51.4,29.82,East,91,0.0,0.0,53,0.00,,,0.00,Wunderground v.1.15,2013-07-24 09:56:00,
2013-07-24 03:01:00,70.0,52.1,29.81,West,281,0.0,0.0,53,0.00,,,0.00,Wunderground v.1.15,2013-07-24 10:01:00,
2013-07-24 03:06:00,69.9,51.5,29.82,West,281,0.0,0.0,52,0.00,,,0.00,Wunderground v.1.15,2013-07-24 10:06:00,
2013-07-24 03:15:00,69.3,51.4,29.81,ENE,59,0.0,0.0,53,0.00,,,0.00,Wunderground v.1.15,2013-07-24 10:15:00,
2013-07-24 03:20:00,68.8,52.0,29.82,ENE,60,1.0,1.0,55,0.00,,,0.00,Wunderground v.1.15,2013-07-24 10:20:00,
2013-07-24 03:26:00,68.6,51.8,29.82,ENE,59,1.0,1.0,55,0.00,,,0.00,Wunderground v.1.15,2013-07-24 10:26:00,
2013-07-24 03:31:00,68.8,52.5,29.81,NNE,22,1.0,1.0,56,0.00,,,0.00,Wunderground v.1.15,2013-07-24 10:31:00,
2013-07-24 03:36:00,69.2,52.3,29.81,ENE,70,1.0,1.0,55,0.00,,,0.00,Wunderground v.1.15,2013-07-24 10:36:00,
2013-07-24 03:45:00,68.8,52.0,29.82,ENE,65,1.0,1.0,55,0.00,,,0.00,Wunderground v.1.15,2013-07-24 10:45:00,
2013-07-24 03:50:00,68.5,52.2,29.82,ENE,65,0.0,1.0,56,0.00,,,0.00,Wunderground v.1.15,2013-07-24 10:50:00,
2013-07-24 03:56:00,68.3,52.5,29.82,NE,55,0.0,0.0,57,0.00,,,0.00,Wunderground v.1.15,2013-07-24 10:56:00,
2013-07-24 04:01:00,68.4,52.6,29.82,NE,55,0.0,1.0,57,0.00,,,0.00,Wunderground v.1.15,2013-07-24 11:01:00,
2013-07-24 04:06:00,68.7,52.8,29.82,ESE,122,0.0,1.0,57,0.00,,,0.00,Wunderground v.1.15,2013-07-24 11:06:00,
2013-07-24 04:15:00,69.8,53.4,29.82,SE,141,1.0,1.0,56,0.00,,,0.00,Wunderground v.1.15,2013-07-24 11:15:00,
2013-07-24 04:20:00,70.5,53.6,29.82,NE,56,1.0,1.0,55,0.00,,,0.00,Wunderground v.1.15,2013-07-24 11:20:00,
2013-07-24 04:26:00,70.1,53.2,29.82,East,89,1.0,1.0,55,0.00,,,0.00,Wunderground v.1.15,2013-07-24 11:26:00,
2013-07-24 04:31:00,69.6,52.7,29.82,East,94,0.0,1.0,55,0.00,,,0.00,Wunderground v.1.15,2013-07-24 11:31:00,
2013-07-24 04:36:00,68.9,52.6,29.82,East,94,0.0,0.0,56,0.00,,,0.00,Wunderground v.1.15,2013-07-24 11:36:00,
2013-07-24 04:41:00,68.3,52.9,29.82,East,94,0.0,0.0,58,0.00,,,0.00,Wunderground v.1.15,2013-07-24 11:41:00,
2013-07-24 04:51:00,67.5,52.7,29.82,NW,305,1.0,1.0,59,0.00,,,0.00,Wunderground v.1.15,2013-07-24 11:51:00,
2013-07-24 04:56:00,67.3,52.5,29.82,NW,305,0.0,0.0,59,0.00,,,0.00,Wunderground v.1.15,2013-07-24 11:56:00,
2013-07-24 05:01:00,66.9,52.1,29.82,NW,305,0.0,0.0,59,0.00,,,0.00,Wunderground v.1.15,2013-07-24 12:01:00,
2013-07-24 05:06:00,66.5,52.2,29.83,NW,305,0.0,0.0,60,0.00,,,0.00,Wunderground v.1.15,2013-07-24 12:06:00,
2013-07-24 05:15:00,66.2,52.3,29.83,NW,305,0.0,0.0,61,0.00,,,0.00,Wunderground v.1.15,2013-07-24 12:15:00,
2013-07-24 05:21:00,65.9,52.5,29.83,NW,305,0.0,1.0,62,0.00,,,0.00,Wunderground v.1.15,2013-07-24 12:21:00,
2013-07-24 05:26:00,65.9,52.5,29.83,NW,305,0.0,1.0,62,0.00,,,0.00,Wunderground v.1.15,2013-07-24 12:26:00,
2013-07-24 05:31:00,65.7,52.3,29.83,NW,305,0.0,0.0,62,0.00,,,0.00,Wunderground v.1.15,2013-07-24 12:31:00,
2013-07-24 05:36:00,65.4,52.5,29.84,NW,305,0.0,0.0,63,0.00,,,0.00,Wunderground v.1.15,2013-07-24 12:36:00,
2013-07-24 05:46:00,65.0,52.5,29.84,North,1,0.0,1.0,64,0.00,,,0.00,Wunderground v.1.15,2013-07-24 12:46:00,
2013-07-24 05:51:00,65.0,52.5,29.85,North,1,0.0,0.0,64,0.00,,,0.00,Wunderground v.1.15,2013-07-24 12:51:00,
2013-07-24 06:01:00,65.2,52.7,29.85,North,1,0.0,0.0,64,0.00,,,0.00,Wunderground v.1.15,2013-07-24 13:01:00,
2013-07-24 06:06:00,65.3,52.8,29.85,North,1,0.0,0.0,64,0.00,,,0.00,Wunderground v.1.15,2013-07-24 13:06:00,
2013-07-24 06:11:00,65.8,52.9,29.85,North,1,0.0,0.0,63,0.00,,,0.00,Wunderground v.1.15,2013-07-24 13:11:00,
2013-07-24 06:21:00,65.6,52.7,29.85,North,1,0.0,0.0,63,0.00,,,0.00,Wunderground v.1.15,2013-07-24 13:21:00,
2013-07-24 06:40:00,64.7,52.7,29.85,North,1,0.0,0.0,65,0.00,,,0.00,Wunderground v.1.15,2013-07-24 13:40:00,
2013-07-24 06:46:00,64.8,53.2,29.85,North,1,0.0,0.0,66,0.00,,,0.00,Wunderground v.1.15,2013-07-24 13:46:00,
2013-07-24 06:56:00,65.0,52.9,29.85,North,1,0.0,0.0,65,0.00,,,0.00,Wunderground v.1.15,2013-07-24 13:56:00,
2013-07-24 07:01:00,65.1,53.5,29.85,West,262,0.0,0.0,66,0.00,,,0.00,Wunderground v.1.15,2013-07-24 14:01:00,
2013-07-24 07:11:00,65.3,53.6,29.85,NW,326,0.0,0.0,66,0.00,,,0.00,Wunderground v.1.15,2013-07-24 14:11:00,
2013-07-24 07:16:00,65.5,53.4,29.85,North,351,0.0,0.0,65,0.00,,,0.00,Wunderground v.1.15,2013-07-24 14:16:00,
2013-07-24 07:26:00,66.4,53.8,29.85,NE,55,0.0,0.0,64,0.00,,,0.00,Wunderground v.1.15,2013-07-24 14:26:00,
2013-07-24 07:31:00,67.0,54.0,29.85,NE,55,0.0,0.0,63,0.00,,,0.00,Wunderground v.1.15,2013-07-24 14:31:00,
2013-07-24 07:36:00,67.2,54.2,29.85,NE,55,0.0,0.0,63,0.00,,,0.00,Wunderground v.1.15,2013-07-24 14:36:00,
2013-07-24 07:46:00,67.9,54.4,29.86,NE,54,0.0,0.0,62,0.00,,,0.00,Wunderground v.1.15,2013-07-24 14:46:00,
2013-07-24 07:51:00,68.7,54.7,29.86,East,97,0.0,0.0,61,0.00,,,0.00,Wunderground v.1.15,2013-07-24 14:51:00,
2013-07-24 07:56:00,70.1,54.6,29.86,East,97,0.0,1.0,58,0.00,,,0.00,Wunderground v.1.15,2013-07-24 14:56:00,
2013-07-24 08:01:00,71.1,55.1,29.86,East,94,0.0,0.0,57,0.00,,,0.00,Wunderground v.1.15,2013-07-24 15:01:00,
2013-07-24 08:06:00,71.7,55.2,29.86,East,94,0.0,0.0,56,0.00,,,0.00,Wunderground v.1.15,2013-07-24 15:06:00,
2013-07-24 08:16:00,72.1,55.0,29.86,WSW,250,0.0,0.0,55,0.00,,,0.00,Wunderground v.1.15,2013-07-24 15:16:00,
2013-07-24 08:21:00,73.2,54.0,29.86,WNW,294,0.0,0.0,51,0.00,,,0.00,Wunderground v.1.15,2013-07-24 15:21:00,
2013-07-24 08:26:00,74.8,54.9,29.86,WSW,250,0.0,0.0,50,0.00,,,0.00,Wunderground v.1.15,2013-07-24 15:26:00,
2013-07-24 08:36:00,75.4,55.5,29.86,WSW,250,1.0,1.0,50,0.00,,,0.00,Wunderground v.1.15,2013-07-24 15:36:00,
2013-07-24 08:41:00,76.6,56.0,29.86,WSW,250,0.0,1.0,49,0.00,,,0.00,Wunderground v.1.15,2013-07-24 15:41:00,
2013-07-24 08:46:00,77.6,55.8,29.86,SE,145,0.0,0.0,47,0.00,,,0.00,Wunderground v.1.15,2013-07-24 15:46:00,
2013-07-24 08:51:00,78.8,55.7,29.86,SW,233,0.0,0.0,45,0.00,,,0.00,Wunderground v.1.15,2013-07-24 15:51:00,
2013-07-24 09:01:00,79.8,55.3,29.86,West,262,0.0,0.0,43,0.00,,,0.00,Wunderground v.1.15,2013-07-24 16:01:00,
2013-07-24 09:06:00,80.1,55.6,29.86,SSE,162,1.0,1.0,43,0.00,,,0.00,Wunderground v.1.15,2013-07-24 16:06:00,
2013-07-24 09:16:00,81.3,56.0,29.86,WNW,296,0.0,2.0,42,0.00,,,0.00,Wunderground v.1.15,2013-07-24 16:16:00,
2013-07-24 09:21:00,81.5,56.2,29.86,NW,321,1.0,2.0,42,0.00,,,0.00,Wunderground v.1.15,2013-07-24 16:21:00,
2013-07-24 09:26:00,81.9,55.9,29.86,West,279,1.0,1.0,41,0.00,,,0.00,Wunderground v.1.15,2013-07-24 16:26:00,
2013-07-24 09:31:00,82.0,56.0,29.86,WSW,250,2.0,3.0,41,0.00,,,0.00,Wunderground v.1.15,2013-07-24 16:31:00,
2013-07-24 09:41:00,83.0,56.2,29.86,WSW,248,1.0,2.0,40,0.00,,,0.00,Wunderground v.1.15,2013-07-24 16:41:00,
2013-07-24 09:46:00,83.3,55.8,29.86,WNW,288,1.0,2.0,39,0.00,,,0.00,Wunderground v.1.15,2013-07-24 16:46:00,
2013-07-24 09:51:00,83.7,56.1,29.86,West,259,1.0,2.0,39,0.00,,,0.00,Wunderground v.1.15,2013-07-24 16:51:00,
2013-07-24 09:56:00,84.0,55.7,29.86,WNW,282,2.0,2.0,38,0.00,,,0.00,Wunderground v.1.15,2013-07-24 16:56:00,
2013-07-24 10:06:00,85.5,56.3,29.85,SSW,212,1.0,2.0,37,0.00,,,0.00,Wunderground v.1.15,2013-07-24 17:06:00,
2013-07-24 10:11:00,85.9,56.6,29.86,SW,224,1.0,1.0,37,0.00,,,0.00,Wunderground v.1.15,2013-07-24 17:11:00,
2013-07-24 10:21:00,86.8,55.9,29.86,WNW,284,1.0,1.0,35,0.00,,,0.00,Wunderground v.1.15,2013-07-24 17:21:00,
2013-07-24 10:26:00,86.5,56.4,29.86,SW,225,1.0,1.0,36,0.00,,,0.00,Wunderground v.1.15,2013-07-24 17:26:00,
2013-07-24 10:36:00,87.4,56.4,29.86,SW,236,1.0,1.0,35,0.00,,,0.00,Wunderground v.1.15,2013-07-24 17:36:00,
2013-07-24 10:41:00,87.4,55.6,29.86,NNW,335,1.0,1.0,34,0.00,,,0.00,Wunderground v.1.15,2013-07-24 17:41:00,
2013-07-24 10:51:00,86.5,55.6,29.86,West,280,4.0,4.0,35,0.00,,,0.00,Wunderground v.1.15,2013-07-24 17:51:00,
2013-07-24 10:56:00,87.4,54.8,29.86,WNW,283,2.0,2.0,33,0.00,,,0.00,Wunderground v.1.15,2013-07-24 17:56:00,
2013-07-24 11:01:00,88.1,55.4,29.85,SW,226,1.0,6.0,33,0.00,,,0.00,Wunderground v.1.15,2013-07-24 18:01:00,
2013-07-24 11:11:00,86.9,54.3,29.85,SSW,204,3.0,4.0,33,0.00,,,0.00,Wunderground v.1.15,2013-07-24 18:11:00,
2013-07-24 11:21:00,87.3,53.8,29.86,West,276,4.0,4.0,32,0.00,,,0.00,Wunderground v.1.15,2013-07-24 18:21:00,
2013-07-24 11:31:00,87.9,53.5,29.85,SSW,206,4.0,4.0,31,0.00,,,0.00,Wunderground v.1.15,2013-07-24 18:31:00,
2013-07-24 11:36:00,88.6,53.2,29.85,SSW,203,3.0,3.0,30,0.00,,,0.00,Wunderground v.1.15,2013-07-24 18:36:00,
2013-07-24 11:45:00,89.5,54.0,29.85,WSW,243,3.0,6.0,30,0.00,,,0.00,Wunderground v.1.15,2013-07-24 18:45:00,
2013-07-24 11:51:00,89.5,53.0,29.85,SSE,163,4.0,6.0,29,0.00,,,0.00,Wunderground v.1.15,2013-07-24 18:51:00,
2013-07-24 11:56:00,89.7,52.3,29.85,West,268,4.0,4.0,28,0.00,,,0.00,Wunderground v.1.15,2013-07-24 18:56:00,
2013-07-24 12:01:00,89.8,52.3,29.84,NNW,333,3.0,4.0,28,0.00,,,0.00,Wunderground v.1.15,2013-07-24 19:01:00,
2013-07-24 12:16:00,90.3,53.7,29.84,WSW,257,4.0,7.0,29,0.00,,,0.00,Wunderground v.1.15,2013-07-24 19:16:00,
2013-07-24 12:26:00,90.7,53.1,29.84,NW,310,3.0,3.0,28,0.00,,,0.00,Wunderground v.1.15,2013-07-24 19:26:00,
2013-07-24 12:31:00,91.1,53.5,29.84,North,8,4.0,4.0,28,0.00,,,0.00,Wunderground v.1.15,2013-07-24 19:31:00,
2013-07-24 12:36:00,91.3,53.6,29.84,South,182,3.0,3.0,28,0.00,,,0.00,Wunderground v.1.15,2013-07-24 19:36:00,
2013-07-24 12:41:00,92.5,53.7,29.84,WSW,246,3.0,3.0,27,0.00,,,0.00,Wunderground v.1.15,2013-07-24 19:41:00,
2013-07-24 12:46:00,93.5,53.5,29.84,WNW,297,2.0,4.0,26,0.00,,,0.00,Wunderground v.1.15,2013-07-24 19:46:00,
2013-07-24 12:51:00,92.8,52.9,29.84,WNW,288,3.0,5.0,26,0.00,,,0.00,Wunderground v.1.15,2013-07-24 19:51:00,
2013-07-24 13:00:00,92.8,52.9,29.83,WSW,239,3.0,5.0,26,0.00,,,0.00,Wunderground v.1.15,2013-07-24 20:00:00,
2013-07-24 13:06:00,93.1,53.1,29.83,West,263,3.0,5.0,26,0.00,,,0.00,Wunderground v.1.15,2013-07-24 20:06:00,
2013-07-24 13:11:00,93.2,53.2,29.83,NE,53,3.0,3.0,26,0.00,,,0.00,Wunderground v.1.15,2013-07-24 20:11:00,
2013-07-24 13:21:00,94.0,52.8,29.83,NW,314,3.0,4.0,25,0.00,,,0.00,Wunderground v.1.15,2013-07-24 20:21:00,
2013-07-24 13:26:00,94.3,54.1,29.83,SW,226,4.0,4.0,26,0.00,,,0.00,Wunderground v.1.15,2013-07-24 20:26:00,
2013-07-24 13:31:00,95.0,53.7,29.83,South,172,4.0,4.0,25,0.00,,,0.00,Wunderground v.1.15,2013-07-24 20:31:00,
2013-07-24 13:36:00,94.7,53.4,29.83,West,278,4.0,4.0,25,0.00,,,0.00,Wunderground v.1.15,2013-07-24 20:36:00,
2013-07-24 13:41:00,94.7,53.4,29.83,SSE,168,4.0,4.0,25,0.00,,,0.00,Wunderground v.1.15,2013-07-24 20:41:00,
2013-07-24 13:51:00,95.9,52.1,29.82,SW,225,3.0,5.0,23,0.00,,,0.00,Wunderground v.1.15,2013-07-24 20:51:00,
2013-07-24 13:56:00,95.5,53.0,29.82,NW,316,4.0,5.0,24,0.00,,,0.00,Wunderground v.1.15,2013-07-24 20:56:00,
2013-07-24 14:01:00,96.4,52.6,29.82,NW,309,3.0,3.0,23,0.00,,,0.00,Wunderground v.1.15,2013-07-24 21:01:00,
2013-07-24 14:06:00,96.2,53.6,29.82,NW,304,3.0,3.0,24,0.00,,,0.00,Wunderground v.1.15,2013-07-24 21:06:00,
2013-07-24 14:11:00,96.8,52.9,29.82,SW,233,3.0,3.0,23,0.00,,,0.00,Wunderground v.1.15,2013-07-24 21:11:00,
2013-07-24 14:21:00,96.0,52.2,29.82,NW,306,4.0,4.0,23,0.00,,,0.00,Wunderground v.1.15,2013-07-24 21:21:00,
2013-07-24 14:30:00,95.9,53.3,29.82,West,276,4.0,4.0,24,0.00,,,0.00,Wunderground v.1.15,2013-07-24 21:30:00,
2013-07-24 14:36:00,96.7,54.0,29.82,ESE,110,4.0,4.0,24,0.00,,,0.00,Wunderground v.1.15,2013-07-24 21:36:00,
2013-07-24 14:41:00,97.0,54.2,29.82,WNW,291,3.0,3.0,24,0.00,,,0.00,Wunderground v.1.15,2013-07-24 21:41:00,
2013-07-24 14:46:00,97.2,53.2,29.81,NW,314,3.0,3.0,23,0.00,,,0.00,Wunderground v.1.15,2013-07-24 21:46:00,
2013-07-24 14:51:00,96.1,53.5,29.81,WSW,253,4.0,4.0,24,0.00,,,0.00,Wunderground v.1.15,2013-07-24 21:51:00,
2013-07-24 14:56:00,96.4,53.7,29.81,WSW,256,4.0,6.0,24,0.00,,,0.00,Wunderground v.1.15,2013-07-24 21:56:00,
2013-07-24 15:06:00,97.1,54.3,29.81,WNW,283,4.0,4.0,24,0.00,,,0.00,Wunderground v.1.15,2013-07-24 22:06:00,
2013-07-24 15:11:00,97.2,53.2,29.81,SW,228,3.0,6.0,23,0.00,,,0.00,Wunderground v.1.15,2013-07-24 22:11:00,
2013-07-24 15:21:00,96.8,54.1,29.81,WSW,245,3.0,5.0,24,0.00,,,0.00,Wunderground v.1.15,2013-07-24 22:21:00,
2013-07-24 15:26:00,97.3,53.3,29.81,SW,221,3.0,5.0,23,0.00,,,0.00,Wunderground v.1.15,2013-07-24 22:26:00,
2013-07-24 15:36:00,97.9,53.8,29.81,SSW,205,2.0,2.0,23,0.00,,,0.00,Wunderground v.1.15,2013-07-24 22:36:00,
2013-07-24 15:41:00,97.3,53.3,29.80,SSW,213,3.0,4.0,23,0.00,,,0.00,Wunderground v.1.15,2013-07-24 22:41:00,
2013-07-24 15:51:00,97.1,53.1,29.80,SW,230,3.0,3.0,23,0.00,,,0.00,Wunderground v.1.15,2013-07-24 22:51:00,
2013-07-24 15:56:00,96.6,52.7,29.80,NNW,334,4.0,4.0,23,0.00,,,0.00,Wunderground v.1.15,2013-07-24 22:56:00,
2013-07-24 16:01:00,96.8,52.9,29.80,SW,230,4.0,4.0,23,0.00,,,0.00,Wunderground v.1.15,2013-07-24 23:01:00,
2013-07-24 16:06:00,96.8,52.9,29.80,WSW,237,3.0,4.0,23,0.00,,,0.00,Wunderground v.1.15,2013-07-24 23:06:00,
2013-07-24 16:15:00,96.8,52.9,29.80,SE,134,3.0,3.0,23,0.00,,,0.00,Wunderground v.1.15,2013-07-24 23:15:00,
2013-07-24 16:20:00,95.9,53.3,29.80,SW,219,3.0,3.0,24,0.00,,,0.00,Wunderground v.1.15,2013-07-24 23:20:00,
2013-07-24 16:26:00,95.8,52.1,29.80,WSW,243,3.0,7.0,23,0.00,,,0.00,Wunderground v.1.15,2013-07-24 23:26:00,
2013-07-24 16:31:00,95.2,52.7,29.80,NW,314,3.0,7.0,24,0.00,,,0.00,Wunderground v.1.15,2013-07-24 23:31:00,
2013-07-24 16:36:00,94.9,52.5,29.80,NW,326,3.0,3.0,24,0.00,,,0.00,Wunderground v.1.15,2013-07-24 23:36:00,
2013-07-24 16:41:00,94.8,51.2,29.80,West,259,3.0,3.0,23,0.00,,,0.00,Wunderground v.1.15,2013-07-24 23:41:00,
2013-07-24 16:46:00,94.7,51.1,29.79,SE,139,3.0,4.0,23,0.00,,,0.00,Wunderground v.1.15,2013-07-24 23:46:00,
2013-07-24 16:56:00,95.3,51.6,29.79,West,274,3.0,3.0,23,0.00,,,0.00,Wunderground v.1.15,2013-07-24 23:56:00,
2013-07-24 17:01:00,94.6,51.1,29.79,NE,46,3.0,3.0,23,0.00,,,0.00,Wunderground v.1.15,2013-07-25 00:01:00,
2013-07-24 17:06:00,95.3,51.6,29.79,NE,46,3.0,3.0,23,0.00,,,0.00,Wunderground v.1.15,2013-07-25 00:06:00,
2013-07-24 17:16:00,95.0,50.2,29.79,NW,313,3.0,3.0,22,0.00,,,0.00,Wunderground v.1.15,2013-07-25 00:16:00,
2013-07-24 17:21:00,94.4,50.9,29.79,WSW,247,3.0,3.0,23,0.00,,,0.00,Wunderground v.1.15,2013-07-25 00:21:00,
2013-07-24 17:31:00,93.8,50.4,29.79,SE,146,4.0,4.0,23,0.00,,,0.00,Wunderground v.1.15,2013-07-25 00:31:00,
2013-07-24 17:36:00,94.0,50.6,29.78,NW,312,3.0,3.0,23,0.00,,,0.00,Wunderground v.1.15,2013-07-25 00:36:00,
2013-07-24 17:41:00,94.5,49.8,29.78,NNW,340,2.0,3.0,22,0.00,,,0.00,Wunderground v.1.15,2013-07-25 00:41:00,
2013-07-24 17:51:00,94.9,48.9,29.78,West,269,2.0,5.0,21,0.00,,,0.00,Wunderground v.1.15,2013-07-25 00:51:00,
2013-07-24 17:56:00,94.0,49.4,29.78,WNW,290,3.0,3.0,22,0.00,,,0.00,Wunderground v.1.15,2013-07-25 00:56:00,
2013-07-24 18:01:00,94.0,49.4,29.78,SSW,212,4.0,4.0,22,0.00,,,0.00,Wunderground v.1.15,2013-07-25 01:01:00,
2013-07-24 18:16:00,95.6,48.1,29.78,WNW,297,1.0,2.0,20,0.00,,,0.00,Wunderground v.1.15,2013-07-25 01:16:00,
2013-07-24 18:21:00,95.5,49.4,29.78,SW,224,2.0,2.0,21,0.00,,,0.00,Wunderground v.1.15,2013-07-25 01:21:00,
2013-07-24 18:26:00,95.6,49.4,29.78,SW,224,2.0,2.0,21,0.00,,,0.00,Wunderground v.1.15,2013-07-25 01:26:00,
2013-07-24 18:31:00,95.0,48.9,29.78,West,259,2.0,2.0,21,0.00,,,0.00,Wunderground v.1.15,2013-07-25 01:31:00,
2013-07-24 18:41:00,93.3,48.8,29.78,West,263,3.0,3.0,22,0.00,,,0.00,Wunderground v.1.15,2013-07-25 01:41:00,
2013-07-24 18:46:00,93.3,48.8,29.78,ENE,61,3.0,3.0,22,0.00,,,0.00,Wunderground v.1.15,2013-07-25 01:46:00,
2013-07-24 18:51:00,93.4,48.9,29.78,NNW,345,2.0,3.0,22,0.00,,,0.00,Wunderground v.1.15,2013-07-25 01:51:00,
2013-07-24 18:56:00,93.1,48.6,29.78,NE,54,2.0,4.0,22,0.00,,,0.00,Wunderground v.1.15,2013-07-25 01:56:00,
2013-07-24 19:06:00,92.1,49.0,29.78,NW,323,3.0,3.0,23,0.00,,,0.00,Wunderground v.1.15,2013-07-25 02:06:00,
2013-07-24 19:11:00,91.6,48.6,29.78,NW,322,3.0,3.0,23,0.00,,,0.00,Wunderground v.1.15,2013-07-25 02:11:00,
2013-07-24 19:21:00,90.9,49.1,29.78,ENE,73,3.0,3.0,24,0.00,,,0.00,Wunderground v.1.15,2013-07-25 02:21:00,
2013-07-24 19:26:00,90.4,48.7,29.78,ENE,59,3.0,3.0,24,0.00,,,0.00,Wunderground v.1.15,2013-07-25 02:26:00,
2013-07-24 19:31:00,89.7,49.2,29.78,NNE,15,2.0,3.0,25,0.00,,,0.00,Wunderground v.1.15,2013-07-25 02:31:00,
2013-07-24 19:36:00,89.0,48.6,29.78,NNE,22,3.0,3.0,25,0.00,,,0.00,Wunderground v.1.15,2013-07-25 02:36:00,
2013-07-24 19:46:00,88.1,47.9,29.78,North,354,2.0,2.0,25,0.00,,,0.00,Wunderground v.1.15,2013-07-25 02:46:00,
2013-07-24 19:51:00,87.5,48.4,29.78,ENE,74,2.0,2.0,26,0.00,,,0.00,Wunderground v.1.15,2013-07-25 02:51:00,
2013-07-24 19:56:00,87.1,48.1,29.78,NE,34,1.0,3.0,26,0.00,,,0.00,Wunderground v.1.15,2013-07-25 02:56:00,
2013-07-24 20:01:00,86.6,47.6,29.78,NNW,333,1.0,2.0,26,0.00,,,0.00,Wunderground v.1.15,2013-07-25 03:01:00,
2013-07-24 20:15:00,85.9,47.0,29.78,West,261,1.0,1.0,26,0.00,,,0.00,Wunderground v.1.15,2013-07-25 03:15:00,
2013-07-24 20:31:00,86.1,46.2,29.78,NNE,22,3.0,7.0,25,0.00,,,0.00,Wunderground v.1.15,2013-07-25 03:31:00,
2013-07-24 20:41:00,85.5,46.7,29.79,WNW,293,2.0,3.0,26,0.00,,,0.00,Wunderground v.1.15,2013-07-25 03:41:00,
2013-07-24 20:46:00,85.1,47.4,29.79,WNW,302,1.0,1.0,27,0.00,,,0.00,Wunderground v.1.15,2013-07-25 03:46:00,
2013-07-24 20:51:00,84.8,47.1,29.79,WNW,289,1.0,1.0,27,0.00,,,0.00,Wunderground v.1.15,2013-07-25 03:51:00,
2013-07-24 20:56:00,84.6,47.9,29.78,WNW,286,1.0,1.0,28,0.00,,,0.00,Wunderground v.1.15,2013-07-25 03:56:00,
2013-07-24 21:06:00,84.3,48.6,29.79,WNW,290,1.0,3.0,29,0.00,,,0.00,Wunderground v.1.15,2013-07-25 04:06:00,
2013-07-24 21:11:00,84.1,48.4,29.79,NNE,13,2.0,2.0,29,0.00,,,0.00,Wunderground v.1.15,2013-07-25 04:11:00,
2013-07-24 21:15:00,83.2,48.5,29.79,NNE,13,1.0,2.0,30,0.00,,,0.00,Wunderground v.1.15,2013-07-25 04:15:00,
2013-07-24 21:20:00,82.4,47.8,29.79,NNE,18,0.0,2.0,30,0.00,,,0.00,Wunderground v.1.15,2013-07-25 04:20:00,
2013-07-24 21:26:00,82.0,48.4,29.79,NW,313,0.0,1.0,31,0.00,,,0.00,Wunderground v.1.15,2013-07-25 04:26:00,
2013-07-24 21:31:00,82.4,48.7,29.79,NNE,18,1.0,1.0,31,0.00,,,0.00,Wunderground v.1.15,2013-07-25 04:31:00,
2013-07-24 21:36:00,82.4,48.7,29.79,NW,321,1.0,1.0,31,0.00,,,0.00,Wunderground v.1.15,2013-07-25 04:36:00,
2013-07-24 21:46:00,82.3,48.6,29.79,NW,323,0.0,0.0,31,0.00,,,0.00,Wunderground v.1.15,2013-07-25 04:46:00,
2013-07-24 21:51:00,82.1,49.3,29.79,SW,219,0.0,0.0,32,0.00,,,0.00,Wunderground v.1.15,2013-07-25 04:51:00,
2013-07-24 21:56:00,82.1,49.3,29.80,WSW,255,1.0,2.0,32,0.00,,,0.00,Wunderground v.1.15,2013-07-25 04:56:00,
2013-07-24 22:06:00,81.4,48.7,29.80,West,270,1.0,1.0,32,0.00,,,0.00,Wunderground v.1.15,2013-07-25 05:06:00,
2013-07-24 22:16:00,80.4,49.5,29.80,North,356,0.0,0.0,34,0.00,,,0.00,Wunderground v.1.15,2013-07-25 05:16:00,
2013-07-24 22:21:00,80.5,49.5,29.80,NE,42,0.0,0.0,34,0.00,,,0.00,Wunderground v.1.15,2013-07-25 05:21:00,
2013-07-24 22:31:00,81.4,50.3,29.79,WSW,247,1.0,2.0,34,0.00,,,0.00,Wunderground v.1.15,2013-07-25 05:31:00,
2013-07-24 22:41:00,81.5,50.4,29.79,SE,136,0.0,2.0,34,0.00,,,0.00,Wunderground v.1.15,2013-07-25 05:41:00,
2013-07-24 22:46:00,81.3,51.0,29.79,NNW,334,0.0,1.0,35,0.00,,,0.00,Wunderground v.1.15,2013-07-25 05:46:00,
2013-07-24 22:51:00,81.7,50.6,29.79,NW,318,1.0,1.0,34,0.00,,,0.00,Wunderground v.1.15,2013-07-25 05:51:00,
2013-07-24 22:56:00,82.1,50.9,29.79,WNW,291,1.0,2.0,34,0.00,,,0.00,Wunderground v.1.15,2013-07-25 05:56:00,
2013-07-24 23:01:00,82.3,51.1,29.79,NW,316,1.0,1.0,34,0.00,,,0.00,Wunderground v.1.15,2013-07-25 06:01:00,
2013-07-24 23:06:00,82.5,51.3,29.79,SSW,198,1.0,1.0,34,0.00,,,0.00,Wunderground v.1.15,2013-07-25 06:06:00,
2013-07-24 23:16:00,82.4,51.2,29.79,WSW,255,1.0,4.0,34,0.00,,,0.00,Wunderground v.1.15,2013-07-25 06:16:00,
2013-07-24 23:21:00,82.4,51.2,29.79,SW,231,1.0,2.0,34,0.00,,,0.00,Wunderground v.1.15,2013-07-25 06:21:00,
2013-07-24 23:26:00,82.2,51.8,29.79,WSW,240,1.0,2.0,35,0.00,,,0.00,Wunderground v.1.15,2013-07-25 06:26:00,
2013-07-24 23:31:00,82.0,51.6,29.79,WNW,285,1.0,2.0,35,0.00,,,0.00,Wunderground v.1.15,2013-07-25 06:31:00,
2013-07-24 23:41:00,81.8,51.5,29.79,West,263,1.0,4.0,35,0.00,,,0.00,Wunderground v.1.15,2013-07-25 06:41:00,
2013-07-24 23:50:00,81.6,52.1,29.79,SSW,200,1.0,1.0,36,0.00,,,0.00,Wunderground v.1.15,2013-07-25 06:50:00,
2013-07-24 23:56:00,81.4,51.9,29.79,SW,234,1.0,1.0,36,0.00,,,0.00,Wunderground v.1.15,2013-07-25 06:56:00,